sensor_id;sensor_type;location;lat;lon;timestamp;temperature;humidity
45715;DHT22;31430;61.646;24.704;2023-02-15T00:01:54;-1.40;99.90
45715;DHT22;31430;61.646;24.704;2023-02-15T00:04:22;-1.50;99.90
45715;DHT22;31430;61.646;24.704;2023-02-15T00:06:48;-1.50;99.90
45715;DHT22;31430;61.646;24.704;2023-02-15T00:09:14;-1.50;99.90
45715;DHT22;31430;61.646;24.704;2023-02-15T00:11:40;-1.60;99.90
45715;DHT22;31430;61.646;24.704;2023-02-15T00:14:23;-1.50;99.90
45715;DHT22;31430;61.646;24.704;2023-02-15T00:16:51;-1.60;99.90
45715;DHT22;31430;61.646;24.704;2023-02-15T00:19:18;-1.60;99.90
45715;DHT22;31430;61.646;24.704;2023-02-15T00:21:45;-1.50;99.90
45715;DHT22;31430;61.646;24.704;2023-02-15T00:24:13;-1.60;99.90
45715;DHT22;31430;61.646;24.704;2023-02-15T00:26:40;-1.60;99.90
45715;DHT22;31430;61.646;24.704;2023-02-15T00:29:07;-1.50;99.90
45715;DHT22;31430;61.646;24.704;2023-02-15T00:31:34;-1.50;99.90
45715;DHT22;31430;61.646;24.704;2023-02-15T00:34:05;-1.50;99.90
45715;DHT22;31430;61.646;24.704;2023-02-15T00:36:31;-1.60;99.90
45715;DHT22;31430;61.646;24.704;2023-02-15T00:38:56;-1.60;99.90
45715;DHT22;31430;61.646;24.704;2023-02-15T00:41:22;-1.60;99.90
45715;DHT22;31430;61.646;24.704;2023-02-15T00:43:48;-1.60;99.90
45715;DHT22;31430;61.646;24.704;2023-02-15T00:46:13;-1.60;99.90
45715;DHT22;31430;61.646;24.704;2023-02-15T00:48:39;-1.60;99.90
45715;DHT22;31430;61.646;24.704;2023-02-15T00:51:04;-1.60;99.90
45715;DHT22;31430;61.646;24.704;2023-02-15T00:53:30;-1.60;99.90
45715;DHT22;31430;61.646;24.704;2023-02-15T00:55:56;-1.60;99.90
45715;DHT22;31430;61.646;24.704;2023-02-15T00:58:22;-1.60;99.90
45715;DHT22;31430;61.646;24.704;2023-02-15T01:00:49;-1.60;99.90
45715;DHT22;31430;61.646;24.704;2023-02-15T01:03:16;-1.60;99.90
45715;DHT22;31430;61.646;24.704;2023-02-15T01:05:42;-1.60;99.90
45715;DHT22;31430;61.646;24.704;2023-02-15T01:08:08;-1.60;99.90
45715;DHT22;31430;61.646;24.704;2023-02-15T01:10:35;-1.60;99.90
45715;DHT22;31430;61.646;24.704;2023-02-15T01:13:01;-1.60;99.90
45715;DHT22;31430;61.646;24.704;2023-02-15T01:15:27;-1.60;99.90
45715;DHT22;31430;61.646;24.704;2023-02-15T01:17:52;-1.60;99.90
45715;DHT22;31430;61.646;24.704;2023-02-15T01:20:24;-1.60;99.90
45715;DHT22;31430;61.646;24.704;2023-02-15T01:22:51;-1.70;99.90
45715;DHT22;31430;61.646;24.704;2023-02-15T01:25:18;-1.70;99.90
45715;DHT22;31430;61.646;24.704;2023-02-15T01:27:44;-1.70;99.90
45715;DHT22;31430;61.646;24.704;2023-02-15T01:30:10;-1.70;99.90
45715;DHT22;31430;61.646;24.704;2023-02-15T01:32:36;-1.70;99.90
45715;DHT22;31430;61.646;24.704;2023-02-15T01:35:02;-1.70;99.90
45715;DHT22;31430;61.646;24.704;2023-02-15T01:37:30;-1.80;99.90
45715;DHT22;31430;61.646;24.704;2023-02-15T01:39:56;-1.70;99.90
45715;DHT22;31430;61.646;24.704;2023-02-15T01:42:23;-1.80;99.90
45715;DHT22;31430;61.646;24.704;2023-02-15T01:44:52;-1.80;99.90
45715;DHT22;31430;61.646;24.704;2023-02-15T01:47:45;-1.80;99.90
45715;DHT22;31430;61.646;24.704;2023-02-15T01:50:34;-1.80;99.90
45715;DHT22;31430;61.646;24.704;2023-02-15T01:53:30;-1.80;99.90
45715;DHT22;31430;61.646;24.704;2023-02-15T01:56:02;-1.80;99.90
45715;DHT22;31430;61.646;24.704;2023-02-15T01:58:29;-1.70;99.90
45715;DHT22;31430;61.646;24.704;2023-02-15T02:00:58;-1.70;99.90
45715;DHT22;31430;61.646;24.704;2023-02-15T02:03:38;-1.80;99.90
45715;DHT22;31430;61.646;24.704;2023-02-15T02:06:07;-1.80;99.90
45715;DHT22;31430;61.646;24.704;2023-02-15T02:08:33;-1.80;99.90
45715;DHT22;31430;61.646;24.704;2023-02-15T02:10:59;-1.80;99.90
45715;DHT22;31430;61.646;24.704;2023-02-15T02:13:25;-1.80;99.90
45715;DHT22;31430;61.646;24.704;2023-02-15T02:16:04;-1.80;99.90
45715;DHT22;31430;61.646;24.704;2023-02-15T02:27:28;-1.80;99.90
45715;DHT22;31430;61.646;24.704;2023-02-15T02:33:18;-1.80;99.90
45715;DHT22;31430;61.646;24.704;2023-02-15T02:36:11;-1.70;99.90
45715;DHT22;31430;61.646;24.704;2023-02-15T02:41:58;-1.70;99.90
45715;DHT22;31430;61.646;24.704;2023-02-15T02:45:08;-1.70;99.90
45715;DHT22;31430;61.646;24.704;2023-02-15T02:47:48;-1.80;99.90
45715;DHT22;31430;61.646;24.704;2023-02-15T02:50:17;-1.70;99.90
45715;DHT22;31430;61.646;24.704;2023-02-15T02:52:51;-1.80;99.90
45715;DHT22;31430;61.646;24.704;2023-02-15T03:00:22;-1.70;99.90
45715;DHT22;31430;61.646;24.704;2023-02-15T03:03:12;-1.70;99.90
45715;DHT22;31430;61.646;24.704;2023-02-15T03:05:43;-1.80;99.90
45715;DHT22;31430;61.646;24.704;2023-02-15T03:08:11;-1.80;99.90
45715;DHT22;31430;61.646;24.704;2023-02-15T03:10:39;-1.80;99.90
45715;DHT22;31430;61.646;24.704;2023-02-15T03:13:06;-1.70;99.90
45715;DHT22;31430;61.646;24.704;2023-02-15T03:15:38;-1.70;99.90
45715;DHT22;31430;61.646;24.704;2023-02-15T03:18:28;-1.80;99.90
45715;DHT22;31430;61.646;24.704;2023-02-15T03:20:55;-1.90;99.90
45715;DHT22;31430;61.646;24.704;2023-02-15T03:23:25;-1.90;99.90
45715;DHT22;31430;61.646;24.704;2023-02-15T03:25:57;-1.80;99.90
45715;DHT22;31430;61.646;24.704;2023-02-15T03:28:45;-1.90;99.90
45715;DHT22;31430;61.646;24.704;2023-02-15T03:31:13;-1.80;99.90
45715;DHT22;31430;61.646;24.704;2023-02-15T03:33:44;-1.80;99.90
45715;DHT22;31430;61.646;24.704;2023-02-15T03:41:48;-1.90;99.90
45715;DHT22;31430;61.646;24.704;2023-02-15T03:44:29;-2.00;99.90
45715;DHT22;31430;61.646;24.704;2023-02-15T03:47:06;-2.00;99.90
45715;DHT22;31430;61.646;24.704;2023-02-15T03:52:55;-2.00;99.90
45715;DHT22;31430;61.646;24.704;2023-02-15T03:55:21;-2.00;99.90
45715;DHT22;31430;61.646;24.704;2023-02-15T03:57:47;-2.00;99.90
45715;DHT22;31430;61.646;24.704;2023-02-15T04:00:36;-2.00;99.90
45715;DHT22;31430;61.646;24.704;2023-02-15T04:03:43;-2.00;99.90
45715;DHT22;31430;61.646;24.704;2023-02-15T04:06:10;-1.90;99.90
45715;DHT22;31430;61.646;24.704;2023-02-15T04:08:35;-2.00;99.90
45715;DHT22;31430;61.646;24.704;2023-02-15T04:11:19;-1.90;99.90
45715;DHT22;31430;61.646;24.704;2023-02-15T04:13:45;-2.00;99.90
45715;DHT22;31430;61.646;24.704;2023-02-15T04:16:11;-1.90;99.90
45715;DHT22;31430;61.646;24.704;2023-02-15T04:18:43;-1.90;99.90
45715;DHT22;31430;61.646;24.704;2023-02-15T04:21:29;-1.90;99.90
45715;DHT22;31430;61.646;24.704;2023-02-15T04:24:14;-1.80;99.90
45715;DHT22;31430;61.646;24.704;2023-02-15T04:26:58;-1.90;99.90
45715;DHT22;31430;61.646;24.704;2023-02-15T04:29:26;-1.90;99.90
45715;DHT22;31430;61.646;24.704;2023-02-15T04:31:53;-1.90;99.90
45715;DHT22;31430;61.646;24.704;2023-02-15T04:34:19;-1.90;99.90
45715;DHT22;31430;61.646;24.704;2023-02-15T04:36:44;-1.90;99.90
45715;DHT22;31430;61.646;24.704;2023-02-15T04:39:13;-1.90;99.90
45715;DHT22;31430;61.646;24.704;2023-02-15T04:41:39;-1.90;99.90
45715;DHT22;31430;61.646;24.704;2023-02-15T04:44:05;-1.80;99.90
45715;DHT22;31430;61.646;24.704;2023-02-15T04:46:30;-1.80;99.90
45715;DHT22;31430;61.646;24.704;2023-02-15T04:48:56;-1.90;99.90
45715;DHT22;31430;61.646;24.704;2023-02-15T04:51:22;-1.90;99.90
45715;DHT22;31430;61.646;24.704;2023-02-15T04:53:47;-1.90;99.90
45715;DHT22;31430;61.646;24.704;2023-02-15T04:56:13;-1.90;99.90
45715;DHT22;31430;61.646;24.704;2023-02-15T04:58:39;-1.90;99.90
45715;DHT22;31430;61.646;24.704;2023-02-15T05:01:08;-1.90;99.90
45715;DHT22;31430;61.646;24.704;2023-02-15T05:03:34;-1.90;99.90
45715;DHT22;31430;61.646;24.704;2023-02-15T05:06:00;-1.90;99.90
45715;DHT22;31430;61.646;24.704;2023-02-15T05:08:26;-1.90;99.90
45715;DHT22;31430;61.646;24.704;2023-02-15T05:10:51;-1.90;99.90
45715;DHT22;31430;61.646;24.704;2023-02-15T05:13:17;-1.90;99.90
45715;DHT22;31430;61.646;24.704;2023-02-15T05:15:53;-1.90;99.90
45715;DHT22;31430;61.646;24.704;2023-02-15T05:18:20;-1.90;99.90
45715;DHT22;31430;61.646;24.704;2023-02-15T05:20:47;-1.90;99.90
45715;DHT22;31430;61.646;24.704;2023-02-15T05:23:13;-1.90;99.90
45715;DHT22;31430;61.646;24.704;2023-02-15T05:25:38;-1.90;99.90
45715;DHT22;31430;61.646;24.704;2023-02-15T05:28:26;-1.90;99.90
45715;DHT22;31430;61.646;24.704;2023-02-15T05:31:10;-1.80;99.90
45715;DHT22;31430;61.646;24.704;2023-02-15T05:33:36;-1.80;99.90
45715;DHT22;31430;61.646;24.704;2023-02-15T05:36:03;-1.90;99.90
45715;DHT22;31430;61.646;24.704;2023-02-15T05:38:29;-1.90;99.90
45715;DHT22;31430;61.646;24.704;2023-02-15T05:40:54;-1.90;99.90
45715;DHT22;31430;61.646;24.704;2023-02-15T05:43:20;-1.90;99.90
45715;DHT22;31430;61.646;24.704;2023-02-15T05:45:47;-1.80;99.90
45715;DHT22;31430;61.646;24.704;2023-02-15T05:48:13;-1.80;99.90
45715;DHT22;31430;61.646;24.704;2023-02-15T05:50:39;-1.80;99.90
45715;DHT22;31430;61.646;24.704;2023-02-15T05:53:04;-1.80;99.90
45715;DHT22;31430;61.646;24.704;2023-02-15T05:55:30;-1.80;99.90
45715;DHT22;31430;61.646;24.704;2023-02-15T05:57:56;-1.80;99.90
45715;DHT22;31430;61.646;24.704;2023-02-15T06:00:21;-1.90;99.90
45715;DHT22;31430;61.646;24.704;2023-02-15T06:02:47;-1.90;99.90
45715;DHT22;31430;61.646;24.704;2023-02-15T06:05:13;-1.90;99.90
45715;DHT22;31430;61.646;24.704;2023-02-15T06:07:38;-1.80;99.90
45715;DHT22;31430;61.646;24.704;2023-02-15T06:10:04;-1.80;99.90
45715;DHT22;31430;61.646;24.704;2023-02-15T06:12:30;-1.90;99.90
45715;DHT22;31430;61.646;24.704;2023-02-15T06:14:56;-1.90;99.90
45715;DHT22;31430;61.646;24.704;2023-02-15T06:17:22;-1.80;99.90
45715;DHT22;31430;61.646;24.704;2023-02-15T06:19:47;-1.90;99.90
45715;DHT22;31430;61.646;24.704;2023-02-15T06:22:13;-1.90;99.90
45715;DHT22;31430;61.646;24.704;2023-02-15T06:24:41;-1.90;99.90
45715;DHT22;31430;61.646;24.704;2023-02-15T06:27:09;-1.90;99.90
45715;DHT22;31430;61.646;24.704;2023-02-15T06:29:35;-1.90;99.90
45715;DHT22;31430;61.646;24.704;2023-02-15T06:32:01;-1.90;99.90
45715;DHT22;31430;61.646;24.704;2023-02-15T06:34:26;-1.90;99.90
45715;DHT22;31430;61.646;24.704;2023-02-15T06:36:52;-1.90;99.90
45715;DHT22;31430;61.646;24.704;2023-02-15T06:39:18;-1.90;99.90
45715;DHT22;31430;61.646;24.704;2023-02-15T06:41:43;-1.90;99.90
45715;DHT22;31430;61.646;24.704;2023-02-15T06:44:09;-1.90;99.90
45715;DHT22;31430;61.646;24.704;2023-02-15T06:46:35;-1.90;99.90
45715;DHT22;31430;61.646;24.704;2023-02-15T06:49:00;-1.90;99.90
45715;DHT22;31430;61.646;24.704;2023-02-15T06:51:26;-1.90;99.90
45715;DHT22;31430;61.646;24.704;2023-02-15T06:53:52;-1.90;99.90
45715;DHT22;31430;61.646;24.704;2023-02-15T06:56:17;-1.90;99.90
45715;DHT22;31430;61.646;24.704;2023-02-15T06:58:43;-1.90;99.90
45715;DHT22;31430;61.646;24.704;2023-02-15T07:01:11;-1.90;99.90
45715;DHT22;31430;61.646;24.704;2023-02-15T07:03:36;-1.90;99.90
45715;DHT22;31430;61.646;24.704;2023-02-15T07:06:03;-1.90;99.90
45715;DHT22;31430;61.646;24.704;2023-02-15T07:08:31;-1.90;99.90
45715;DHT22;31430;61.646;24.704;2023-02-15T07:10:57;-1.90;99.90
45715;DHT22;31430;61.646;24.704;2023-02-15T07:13:46;-1.90;99.90
45715;DHT22;31430;61.646;24.704;2023-02-15T07:16:12;-1.90;99.90
45715;DHT22;31430;61.646;24.704;2023-02-15T07:18:38;-1.90;99.90
45715;DHT22;31430;61.646;24.704;2023-02-15T07:21:05;-1.80;99.90
45715;DHT22;31430;61.646;24.704;2023-02-15T07:23:37;-1.70;99.90
45715;DHT22;31430;61.646;24.704;2023-02-15T07:26:04;-1.50;99.90
45715;DHT22;31430;61.646;24.704;2023-02-15T07:28:31;-1.50;99.90
45715;DHT22;31430;61.646;24.704;2023-02-15T07:30:56;-1.40;99.90
45715;DHT22;31430;61.646;24.704;2023-02-15T07:33:23;-1.30;99.90
45715;DHT22;31430;61.646;24.704;2023-02-15T07:35:53;-1.30;99.90
45715;DHT22;31430;61.646;24.704;2023-02-15T07:38:19;-1.20;99.90
45715;DHT22;31430;61.646;24.704;2023-02-15T07:40:45;-1.20;99.90
45715;DHT22;31430;61.646;24.704;2023-02-15T07:43:11;-1.20;99.90
45715;DHT22;31430;61.646;24.704;2023-02-15T07:45:37;-1.20;99.90
45715;DHT22;31430;61.646;24.704;2023-02-15T07:48:03;-1.20;99.90
45715;DHT22;31430;61.646;24.704;2023-02-15T07:50:30;-1.20;99.90
45715;DHT22;31430;61.646;24.704;2023-02-15T07:52:55;-1.10;99.90
45715;DHT22;31430;61.646;24.704;2023-02-15T07:55:21;-1.20;99.90
45715;DHT22;31430;61.646;24.704;2023-02-15T07:57:47;-1.10;99.90
45715;DHT22;31430;61.646;24.704;2023-02-15T08:00:15;-1.10;99.90
45715;DHT22;31430;61.646;24.704;2023-02-15T08:02:42;-1.20;99.90
45715;DHT22;31430;61.646;24.704;2023-02-15T08:05:12;-1.10;99.90
45715;DHT22;31430;61.646;24.704;2023-02-15T08:07:38;-1.20;99.90
45715;DHT22;31430;61.646;24.704;2023-02-15T08:10:04;-1.00;99.90
45715;DHT22;31430;61.646;24.704;2023-02-15T08:12:29;-1.00;99.90
45715;DHT22;31430;61.646;24.704;2023-02-15T08:14:55;-0.90;99.90
45715;DHT22;31430;61.646;24.704;2023-02-15T08:17:21;-1.00;99.90
45715;DHT22;31430;61.646;24.704;2023-02-15T08:19:47;-0.90;99.90
45715;DHT22;31430;61.646;24.704;2023-02-15T08:22:13;-0.90;99.90
45715;DHT22;31430;61.646;24.704;2023-02-15T08:24:40;-0.90;99.90
45715;DHT22;31430;61.646;24.704;2023-02-15T08:27:08;-0.70;99.90
45715;DHT22;31430;61.646;24.704;2023-02-15T08:29:36;-0.80;99.90
45715;DHT22;31430;61.646;24.704;2023-02-15T08:32:08;-0.80;99.90
45715;DHT22;31430;61.646;24.704;2023-02-15T08:34:38;-1.20;99.90
45715;DHT22;31430;61.646;24.704;2023-02-15T08:37:04;-1.10;99.90
45715;DHT22;31430;61.646;24.704;2023-02-15T08:39:31;-1.30;99.90
45715;DHT22;31430;61.646;24.704;2023-02-15T08:41:57;-1.30;99.90
45715;DHT22;31430;61.646;24.704;2023-02-15T08:44:22;-1.40;99.90
45715;DHT22;31430;61.646;24.704;2023-02-15T08:46:48;-1.30;99.90
45715;DHT22;31430;61.646;24.704;2023-02-15T08:49:21;-1.10;99.90
45715;DHT22;31430;61.646;24.704;2023-02-15T08:51:48;-0.80;99.90
45715;DHT22;31430;61.646;24.704;2023-02-15T08:54:16;-0.80;99.90
45715;DHT22;31430;61.646;24.704;2023-02-15T08:56:43;-1.00;99.90
45715;DHT22;31430;61.646;24.704;2023-02-15T08:59:15;-0.90;99.90
45715;DHT22;31430;61.646;24.704;2023-02-15T09:01:41;-0.80;99.90
45715;DHT22;31430;61.646;24.704;2023-02-15T09:04:07;-0.70;99.90
45715;DHT22;31430;61.646;24.704;2023-02-15T09:06:38;-0.60;99.90
45715;DHT22;31430;61.646;24.704;2023-02-15T09:09:04;-0.60;99.90
45715;DHT22;31430;61.646;24.704;2023-02-15T09:11:34;-0.50;99.90
45715;DHT22;31430;61.646;24.704;2023-02-15T09:14:05;-0.60;99.90
45715;DHT22;31430;61.646;24.704;2023-02-15T09:16:34;-0.70;99.90
45715;DHT22;31430;61.646;24.704;2023-02-15T09:19:00;-0.50;99.90
45715;DHT22;31430;61.646;24.704;2023-02-15T09:21:33;-0.50;99.90
45715;DHT22;31430;61.646;24.704;2023-02-15T09:24:04;-0.50;99.90
45715;DHT22;31430;61.646;24.704;2023-02-15T09:26:31;-0.60;99.90
45715;DHT22;31430;61.646;24.704;2023-02-15T09:28:59;-0.60;99.90
45715;DHT22;31430;61.646;24.704;2023-02-15T09:31:31;-0.50;99.90
45715;DHT22;31430;61.646;24.704;2023-02-15T09:33:59;-0.40;99.90
45715;DHT22;31430;61.646;24.704;2023-02-15T09:36:33;-0.40;99.90
45715;DHT22;31430;61.646;24.704;2023-02-15T09:47:48;-0.20;99.90
45715;DHT22;31430;61.646;24.704;2023-02-15T09:50:57;-0.20;99.90
45715;DHT22;31430;61.646;24.704;2023-02-15T09:56:38;-0.20;99.90
45715;DHT22;31430;61.646;24.704;2023-02-15T10:05:05;0.10;99.90
45715;DHT22;31430;61.646;24.704;2023-02-15T10:15:55;0.10;99.90
45715;DHT22;31430;61.646;24.704;2023-02-15T10:18:35;0.30;99.90
45715;DHT22;31430;61.646;24.704;2023-02-15T10:29:03;0.40;99.90
45715;DHT22;31430;61.646;24.704;2023-02-15T10:31:50;0.40;99.90
45715;DHT22;31430;61.646;24.704;2023-02-15T10:50:24;0.20;99.90
45715;DHT22;31430;61.646;24.704;2023-02-15T10:58:51;0.40;99.90
45715;DHT22;31430;61.646;24.704;2023-02-15T11:01:30;0.50;99.90
45715;DHT22;31430;61.646;24.704;2023-02-15T11:06:29;0.50;99.90
45715;DHT22;31430;61.646;24.704;2023-02-15T11:09:12;0.60;99.90
45715;DHT22;31430;61.646;24.704;2023-02-15T11:11:42;0.70;99.90
45715;DHT22;31430;61.646;24.704;2023-02-15T11:14:15;0.60;99.90
45715;DHT22;31430;61.646;24.704;2023-02-15T11:16:50;0.40;99.90
45715;DHT22;31430;61.646;24.704;2023-02-15T11:19:30;0.60;99.90
45715;DHT22;31430;61.646;24.704;2023-02-15T11:21:59;0.90;99.90
45715;DHT22;31430;61.646;24.704;2023-02-15T11:24:29;1.00;99.90
45715;DHT22;31430;61.646;24.704;2023-02-15T11:27:21;0.80;99.90
45715;DHT22;31430;61.646;24.704;2023-02-15T11:37:42;1.10;99.90
45715;DHT22;31430;61.646;24.704;2023-02-15T11:40:30;1.10;99.90
45715;DHT22;31430;61.646;24.704;2023-02-15T11:46:05;1.30;99.90
45715;DHT22;31430;61.646;24.704;2023-02-15T11:48:32;1.20;99.90
45715;DHT22;31430;61.646;24.704;2023-02-15T11:50:58;1.10;99.90
45715;DHT22;31430;61.646;24.704;2023-02-15T11:53:28;1.20;99.90
45715;DHT22;31430;61.646;24.704;2023-02-15T11:55:56;1.10;99.90
45715;DHT22;31430;61.646;24.704;2023-02-15T12:01:08;1.10;99.90
45715;DHT22;31430;61.646;24.704;2023-02-15T12:03:48;1.10;99.90
45715;DHT22;31430;61.646;24.704;2023-02-15T12:06:26;0.70;99.90
45715;DHT22;31430;61.646;24.704;2023-02-15T12:11:37;1.10;99.90
45715;DHT22;31430;61.646;24.704;2023-02-15T12:14:13;1.20;99.90
45715;DHT22;31430;61.646;24.704;2023-02-15T12:16:53;1.20;99.90
45715;DHT22;31430;61.646;24.704;2023-02-15T12:21:59;0.90;99.90
45715;DHT22;31430;61.646;24.704;2023-02-15T12:24:29;0.90;99.90
45715;DHT22;31430;61.646;24.704;2023-02-15T12:29:27;0.90;99.90
45715;DHT22;31430;61.646;24.704;2023-02-15T12:31:55;1.10;99.90
45715;DHT22;31430;61.646;24.704;2023-02-15T12:34:35;1.20;99.90
45715;DHT22;31430;61.646;24.704;2023-02-15T12:37:19;1.30;99.90
45715;DHT22;31430;61.646;24.704;2023-02-15T12:39:57;1.20;99.90
45715;DHT22;31430;61.646;24.704;2023-02-15T12:42:24;1.20;99.90
45715;DHT22;31430;61.646;24.704;2023-02-15T12:45:03;1.20;99.90
45715;DHT22;31430;61.646;24.704;2023-02-15T12:47:30;1.10;99.90
45715;DHT22;31430;61.646;24.704;2023-02-15T12:52:36;1.30;99.90
45715;DHT22;31430;61.646;24.704;2023-02-15T12:55:09;1.20;99.90
45715;DHT22;31430;61.646;24.704;2023-02-15T12:57:36;1.20;99.90
45715;DHT22;31430;61.646;24.704;2023-02-15T13:05:51;0.80;99.90
45715;DHT22;31430;61.646;24.704;2023-02-15T13:08:03;0.80;99.90
45715;DHT22;31430;61.646;24.704;2023-02-15T13:14:00;1.00;99.90
45715;DHT22;31430;61.646;24.704;2023-02-15T13:16:36;1.10;99.90
45715;DHT22;31430;61.646;24.704;2023-02-15T13:19:26;0.80;99.90
45715;DHT22;31430;61.646;24.704;2023-02-15T13:21:56;0.50;99.90
45715;DHT22;31430;61.646;24.704;2023-02-15T13:24:29;0.50;99.90
45715;DHT22;31430;61.646;24.704;2023-02-15T13:26:58;0.40;99.90
45715;DHT22;31430;61.646;24.704;2023-02-15T13:29:36;0.30;99.90
45715;DHT22;31430;61.646;24.704;2023-02-15T13:34:41;0.50;99.90
45715;DHT22;31430;61.646;24.704;2023-02-15T13:37:15;0.50;99.90
45715;DHT22;31430;61.646;24.704;2023-02-15T13:39:58;0.50;99.90
45715;DHT22;31430;61.646;24.704;2023-02-15T14:07:39;-0.10;99.90
45715;DHT22;31430;61.646;24.704;2023-02-15T14:15:44;-0.30;99.90
45715;DHT22;31430;61.646;24.704;2023-02-15T14:18:35;-0.30;99.90
45715;DHT22;31430;61.646;24.704;2023-02-15T14:21:31;-0.40;99.90
45715;DHT22;31430;61.646;24.704;2023-02-15T14:27:04;-0.30;99.90
45715;DHT22;31430;61.646;24.704;2023-02-15T14:29:57;-0.40;99.90
45715;DHT22;31430;61.646;24.704;2023-02-15T14:32:33;-0.40;99.90
45715;DHT22;31430;61.646;24.704;2023-02-15T14:35:04;-0.50;99.90
45715;DHT22;31430;61.646;24.704;2023-02-15T14:40:59;-0.50;99.90
45715;DHT22;31430;61.646;24.704;2023-02-15T14:43:48;-0.50;99.90
45715;DHT22;31430;61.646;24.704;2023-02-15T14:46:50;-0.60;99.90
45715;DHT22;31430;61.646;24.704;2023-02-15T14:49:22;-0.60;99.90
45715;DHT22;31430;61.646;24.704;2023-02-15T15:02:49;-0.60;99.90
45715;DHT22;31430;61.646;24.704;2023-02-15T15:05:35;-0.60;99.90
45715;DHT22;31430;61.646;24.704;2023-02-15T15:08:03;-0.60;99.90
45715;DHT22;31430;61.646;24.704;2023-02-15T15:16:23;-0.60;99.90
45715;DHT22;31430;61.646;24.704;2023-02-15T15:18:47;-0.60;99.90
45715;DHT22;31430;61.646;24.704;2023-02-15T15:27:39;-0.60;99.90
45715;DHT22;31430;61.646;24.704;2023-02-15T15:38:55;-0.70;99.90
45715;DHT22;31430;61.646;24.704;2023-02-15T15:41:42;-0.80;99.90
45715;DHT22;31430;61.646;24.704;2023-02-15T15:49:56;-0.70;99.90
45715;DHT22;31430;61.646;24.704;2023-02-15T15:52:22;-0.70;99.90
45715;DHT22;31430;61.646;24.704;2023-02-15T15:54:56;-0.70;99.90
45715;DHT22;31430;61.646;24.704;2023-02-15T15:57:38;-0.70;99.90
45715;DHT22;31430;61.646;24.704;2023-02-15T16:02:56;-0.60;99.90
45715;DHT22;31430;61.646;24.704;2023-02-15T16:05:22;-0.60;99.90
45715;DHT22;31430;61.646;24.704;2023-02-15T16:07:49;-0.60;99.90
45715;DHT22;31430;61.646;24.704;2023-02-15T16:10:22;-0.60;99.90
45715;DHT22;31430;61.646;24.704;2023-02-15T16:12:49;-0.50;99.90
45715;DHT22;31430;61.646;24.704;2023-02-15T16:17:42;-0.50;99.90
45715;DHT22;31430;61.646;24.704;2023-02-15T16:20:24;-0.50;99.90
45715;DHT22;31430;61.646;24.704;2023-02-15T16:28:28;-0.40;99.90
45715;DHT22;31430;61.646;24.704;2023-02-15T16:30:55;-0.40;99.90
45715;DHT22;31430;61.646;24.704;2023-02-15T16:33:35;-0.40;99.90
45715;DHT22;31430;61.646;24.704;2023-02-15T16:36:01;-0.40;99.90
45715;DHT22;31430;61.646;24.704;2023-02-15T16:43:42;-0.30;99.90
45715;DHT22;31430;61.646;24.704;2023-02-15T16:46:20;-0.40;99.90
45715;DHT22;31430;61.646;24.704;2023-02-15T16:48:49;-0.30;99.90
45715;DHT22;31430;61.646;24.704;2023-02-15T16:51:35;-0.30;99.90
45715;DHT22;31430;61.646;24.704;2023-02-15T16:54:07;-0.30;99.90
45715;DHT22;31430;61.646;24.704;2023-02-15T16:56:33;-0.40;99.90
45715;DHT22;31430;61.646;24.704;2023-02-15T16:59:00;-0.50;99.90
45715;DHT22;31430;61.646;24.704;2023-02-15T17:01:31;-0.50;99.90
45715;DHT22;31430;61.646;24.704;2023-02-15T17:04:28;-0.60;99.90
45715;DHT22;31430;61.646;24.704;2023-02-15T17:07:05;-0.70;99.90
45715;DHT22;31430;61.646;24.704;2023-02-15T17:09:32;-0.60;99.90
45715;DHT22;31430;61.646;24.704;2023-02-15T17:11:59;-0.70;99.90
45715;DHT22;31430;61.646;24.704;2023-02-15T17:14:29;-0.80;99.90
45715;DHT22;31430;61.646;24.704;2023-02-15T17:17:06;-0.80;99.90
45715;DHT22;31430;61.646;24.704;2023-02-15T17:19:59;-0.80;99.90
45715;DHT22;31430;61.646;24.704;2023-02-15T17:22:26;-0.80;99.90
45715;DHT22;31430;61.646;24.704;2023-02-15T17:25:00;-0.90;99.90
45715;DHT22;31430;61.646;24.704;2023-02-15T17:27:30;-0.90;99.90
45715;DHT22;31430;61.646;24.704;2023-02-15T17:30:01;-0.90;99.90
45715;DHT22;31430;61.646;24.704;2023-02-15T17:32:30;-0.90;99.90
45715;DHT22;31430;61.646;24.704;2023-02-15T17:37:31;-0.90;99.90
45715;DHT22;31430;61.646;24.704;2023-02-15T17:40:26;-0.90;99.90
45715;DHT22;31430;61.646;24.704;2023-02-15T17:42:52;-0.90;99.90
45715;DHT22;31430;61.646;24.704;2023-02-15T17:45:19;-0.90;99.90
45715;DHT22;31430;61.646;24.704;2023-02-15T17:47:46;-1.00;99.90
45715;DHT22;31430;61.646;24.704;2023-02-15T17:50:25;-0.90;99.90
45715;DHT22;31430;61.646;24.704;2023-02-15T17:52:52;-0.90;99.90
45715;DHT22;31430;61.646;24.704;2023-02-15T17:55:21;-0.90;99.90
45715;DHT22;31430;61.646;24.704;2023-02-15T17:58:00;-0.90;99.90
45715;DHT22;31430;61.646;24.704;2023-02-15T18:00:27;-1.00;99.90
45715;DHT22;31430;61.646;24.704;2023-02-15T18:03:11;-1.00;99.90
45715;DHT22;31430;61.646;24.704;2023-02-15T18:05:56;-1.00;99.90
45715;DHT22;31430;61.646;24.704;2023-02-15T18:08:41;-1.00;99.90
45715;DHT22;31430;61.646;24.704;2023-02-15T18:11:25;-1.00;99.90
45715;DHT22;31430;61.646;24.704;2023-02-15T18:14:08;-1.00;99.90
45715;DHT22;31430;61.646;24.704;2023-02-15T18:16:37;-1.00;99.90
45715;DHT22;31430;61.646;24.704;2023-02-15T18:19:05;-1.00;99.90
45715;DHT22;31430;61.646;24.704;2023-02-15T18:21:34;-0.90;99.90
45715;DHT22;31430;61.646;24.704;2023-02-15T18:24:00;-0.90;99.90
45715;DHT22;31430;61.646;24.704;2023-02-15T18:26:26;-1.00;99.90
45715;DHT22;31430;61.646;24.704;2023-02-15T18:28:53;-0.90;99.90
45715;DHT22;31430;61.646;24.704;2023-02-15T18:31:18;-0.90;99.90
45715;DHT22;31430;61.646;24.704;2023-02-15T18:33:51;-0.80;99.90
45715;DHT22;31430;61.646;24.704;2023-02-15T18:36:22;-0.80;99.90
45715;DHT22;31430;61.646;24.704;2023-02-15T18:38:49;-0.80;99.90
45715;DHT22;31430;61.646;24.704;2023-02-15T18:41:19;-0.70;99.90
45715;DHT22;31430;61.646;24.704;2023-02-15T18:43:45;-0.70;99.90
45715;DHT22;31430;61.646;24.704;2023-02-15T18:46:13;-0.70;99.90
45715;DHT22;31430;61.646;24.704;2023-02-15T18:48:39;-0.80;99.90
45715;DHT22;31430;61.646;24.704;2023-02-15T18:51:05;-0.80;99.90
45715;DHT22;31430;61.646;24.704;2023-02-15T18:53:40;-0.90;99.90
45715;DHT22;31430;61.646;24.704;2023-02-15T18:56:07;-0.90;99.90
45715;DHT22;31430;61.646;24.704;2023-02-15T18:58:33;-0.80;99.90
45715;DHT22;31430;61.646;24.704;2023-02-15T19:00:59;-0.80;99.90
45715;DHT22;31430;61.646;24.704;2023-02-15T19:03:25;-0.80;99.90
45715;DHT22;31430;61.646;24.704;2023-02-15T19:05:50;-0.70;99.90
45715;DHT22;31430;61.646;24.704;2023-02-15T19:08:18;-0.70;99.90
45715;DHT22;31430;61.646;24.704;2023-02-15T19:10:46;-0.80;99.90
45715;DHT22;31430;61.646;24.704;2023-02-15T19:13:12;-0.70;99.90
45715;DHT22;31430;61.646;24.704;2023-02-15T19:15:38;-0.70;99.90
45715;DHT22;31430;61.646;24.704;2023-02-15T19:18:03;-0.70;99.90